createdAt,value
2019-05-06T00:01:48.526Z,11.27
2019-05-06T00:06:54.605Z,9.67
2019-05-06T00:11:58.709Z,10.77
2019-05-06T00:17:03.909Z,14.13
2019-05-06T00:22:08.346Z,11.47
2019-05-06T00:27:19.969Z,12.23
2019-05-06T00:32:24.423Z,10.23
2019-05-06T00:37:28.734Z,14.93
2019-05-06T00:42:34.997Z,17.77
2019-05-06T00:47:39.220Z,17.40
2019-05-06T00:52:44.709Z,11.23
2019-05-06T00:57:49.266Z,14.30
2019-05-06T01:02:54.234Z,13.87
2019-05-06T01:07:58.977Z,14.80
2019-05-06T01:13:21.134Z,15.17
2019-05-06T01:18:25.358Z,12.57
2019-05-06T01:23:29.586Z,12.77
2019-05-06T01:28:34.199Z,13.57
2019-05-06T01:33:38.445Z,15.43
2019-05-06T01:39:13.981Z,11.60
2019-05-06T01:44:18.924Z,21.53
2019-05-06T01:49:24.561Z,13.17
2019-05-06T01:54:28.877Z,17.23
2019-05-06T01:59:34.032Z,17.50
2019-05-06T02:04:38.527Z,17.73
2019-05-06T02:09:44.612Z,14.37
2019-05-06T02:14:48.753Z,17.07
2019-05-06T02:19:54.620Z,14.73
2019-05-06T02:25:04.296Z,17.40
2019-05-06T02:30:30.550Z,13.17
2019-05-06T02:36:14.877Z,22.23
2019-05-06T02:41:18.363Z,14.13
2019-05-06T02:46:23.796Z,17.70
2019-05-06T02:51:29.548Z,12.70
2019-05-06T02:56:33.784Z,17.80
2019-05-06T03:01:38.055Z,27.57
2019-05-06T03:06:44.640Z,9.70
2019-05-06T03:11:48.231Z,17.40
2019-05-06T03:16:53.815Z,16.57
2019-05-06T03:22:16.034Z,21.13
2019-05-06T03:27:23.368Z,14.00
2019-05-06T03:32:30.766Z,20.83
2019-05-06T03:37:33.442Z,16.13
2019-05-06T03:42:37.889Z,16.10
2019-05-06T03:47:50.179Z,17.97
2019-05-06T03:52:56.537Z,12.33
2019-05-06T03:58:03.968Z,16.10
2019-05-06T04:03:08.636Z,16.97
2019-05-06T04:08:13.373Z,18.90
2019-05-06T04:13:17.643Z,17.93
2019-05-06T04:18:23.778Z,13.83
2019-05-06T04:23:35.798Z,25.90
2019-05-06T04:28:43.325Z,21.93
2019-05-06T04:34:03.655Z,20.27
2019-05-06T04:38:53.950Z,19.10
2019-05-06T04:43:58.589Z,20.67
2019-05-06T04:49:04.009Z,17.87
2019-05-06T04:54:08.440Z,19.17
2019-05-06T04:59:13.860Z,21.63
2019-05-06T05:04:27.759Z,21.90
2019-05-06T05:09:24.395Z,21.37
2019-05-06T05:14:37.087Z,19.77
2019-05-06T05:19:42.875Z,19.60
2019-05-06T05:24:47.145Z,17.23
2019-05-06T05:29:52.395Z,19.97
2019-05-06T05:34:56.638Z,18.30
2019-05-06T05:40:02.958Z,14.00
2019-05-06T05:45:08.340Z,15.30
2019-05-06T05:50:23.844Z,16.93
2019-05-06T05:55:28.363Z,17.57
2019-05-06T06:00:34.291Z,26.70
2019-05-06T06:05:38.518Z,14.93
2019-05-06T06:10:54.156Z,14.13
2019-05-06T06:16:23.137Z,19.73
2019-05-06T06:21:43.000Z,25.33
2019-05-06T06:26:47.286Z,20.77
2019-05-06T06:32:20.174Z,19.57
2019-05-06T06:37:46.196Z,29.30
2019-05-06T06:42:53.942Z,21.30
2019-05-06T06:47:58.201Z,18.07
2019-05-06T06:53:03.017Z,15.93
2019-05-06T06:58:32.191Z,16.27
2019-05-06T07:03:49.444Z,17.13
2019-05-06T07:08:53.693Z,28.90
2019-05-06T07:13:58.126Z,12.37
2019-05-06T07:19:03.091Z,15.90
2019-05-06T07:24:07.528Z,14.57
2019-05-06T07:29:19.013Z,18.00
2019-05-06T07:34:17.737Z,12.53
2019-05-06T07:39:24.075Z,16.47
2019-05-06T07:44:46.903Z,12.53
2019-05-06T07:49:53.102Z,10.70
2019-05-06T07:54:57.703Z,10.47
2019-05-06T08:00:03.401Z,18.20
2019-05-06T08:05:08.260Z,8.23
2019-05-06T08:10:13.663Z,6.73
2019-05-06T08:15:18.165Z,10.93
2019-05-06T08:20:24.535Z,11.23
2019-05-06T08:25:37.686Z,9.67
2019-05-06T08:30:43.112Z,6.97
2019-05-06T08:35:47.853Z,16.03
2019-05-06T08:40:52.638Z,10.43
2019-05-06T08:45:56.898Z,12.47
2019-05-06T08:51:12.690Z,4.00
2019-05-06T08:56:19.481Z,6.50
2019-05-06T09:01:46.801Z,13.50
2019-05-06T09:06:53.219Z,4.40
2019-05-06T09:11:57.027Z,5.33
2019-05-06T09:17:02.929Z,7.37
2019-05-06T09:22:07.308Z,4.37
2019-05-06T09:27:16.384Z,9.93
2019-05-06T09:32:27.829Z,4.80
2019-05-06T09:37:32.617Z,9.17
2019-05-06T09:42:36.950Z,7.83
2019-05-06T09:48:13.653Z,6.03
2019-05-06T09:53:33.570Z,15.13
2019-05-06T09:58:42.846Z,4.60
2019-05-06T10:03:47.958Z,5.10
2019-05-06T10:08:52.272Z,5.43
2019-05-06T10:13:56.522Z,4.33
2019-05-06T10:19:02.572Z,5.97
2019-05-06T10:24:06.844Z,5.05
2019-05-06T10:29:29.879Z,14.07
2019-05-06T10:34:34.133Z,7.17
2019-05-06T10:39:43.324Z,7.97
2019-05-06T10:45:12.401Z,5.20
2019-05-06T10:50:16.673Z,9.80
2019-05-06T10:55:23.125Z,12.43
2019-05-06T11:00:27.074Z,6.05
2019-05-06T11:05:32.512Z,5.80
2019-05-06T11:10:41.144Z,7.28
2019-05-06T11:15:43.519Z,10.35
2019-05-06T11:20:48.008Z,9.78
2019-05-06T11:25:52.710Z,5.53
2019-05-06T11:31:13.946Z,5.80
2019-05-06T11:36:25.414Z,11.73
2019-05-06T11:41:29.641Z,7.35
2019-05-06T11:46:34.466Z,6.70
2019-05-06T11:51:39.475Z,4.80
2019-05-06T11:56:50.976Z,4.97
2019-05-06T12:02:09.794Z,3.75
2019-05-06T12:07:15.630Z,6.00
2019-05-06T12:12:20.001Z,8.25
2019-05-06T12:17:24.256Z,5.60
2019-05-06T12:22:35.796Z,4.42
2019-05-06T12:27:45.984Z,6.58
2019-05-06T12:33:07.923Z,7.97
2019-05-06T12:38:26.484Z,6.78
2019-05-06T12:43:43.563Z,10.32
2019-05-06T12:48:48.197Z,3.92
2019-05-06T12:53:52.998Z,12.63
2019-05-06T12:58:57.494Z,6.85
2019-05-06T13:04:04.641Z,5.60
2019-05-06T13:09:08.004Z,5.40
2019-05-06T13:14:12.840Z,3.87
2019-05-06T13:19:17.181Z,13.40
2019-05-06T13:24:22.846Z,9.70
2019-05-06T13:29:33.087Z,4.47
2019-05-06T13:34:35.832Z,8.35
2019-05-06T13:39:40.309Z,5.83
2019-05-06T13:44:44.606Z,6.83
2019-05-06T13:49:54.792Z,5.12
2019-05-06T13:54:59.046Z,7.12
2019-05-06T14:00:03.585Z,6.83
2019-05-06T14:05:08.576Z,4.45
2019-05-06T14:10:13.380Z,5.97
2019-05-06T14:15:17.770Z,4.97
2019-05-06T14:20:22.159Z,4.95
2019-05-06T14:25:48.521Z,6.17
2019-05-06T14:30:59.709Z,9.03
2019-05-06T14:36:03.972Z,26.75
2019-05-06T14:41:14.923Z,16.32
2019-05-06T14:46:19.371Z,5.08
2019-05-06T14:51:23.723Z,5.53
2019-05-06T14:56:47.419Z,7.20
2019-05-06T15:01:53.688Z,13.48
2019-05-06T15:06:57.649Z,11.15
2019-05-06T15:12:02.445Z,14.23
2019-05-06T15:17:06.833Z,7.50
2019-05-06T15:22:12.972Z,5.15
2019-05-06T15:27:17.065Z,7.15
2019-05-06T15:32:29.327Z,7.10
2019-05-06T15:37:42.331Z,10.28
2019-05-06T15:42:46.453Z,10.78
2019-05-06T15:47:52.383Z,9.18
2019-05-06T15:52:56.839Z,4.03
2019-05-06T15:58:03.245Z,10.20
2019-05-06T16:03:07.105Z,7.67
2019-05-06T16:08:11.357Z,8.20
2019-05-06T16:13:15.614Z,7.92
2019-05-06T16:18:19.876Z,4.70
2019-05-06T16:23:47.045Z,5.60
2019-05-06T16:28:53.146Z,4.92
2019-05-06T16:33:57.330Z,7.22
2019-05-06T16:39:03.592Z,11.80
2019-05-06T16:44:07.688Z,6.75
2019-05-06T16:49:14.201Z,7.13
2019-05-06T16:54:19.106Z,5.73
2019-05-06T16:59:23.791Z,5.97
2019-05-06T17:04:45.799Z,8.17
2019-05-06T17:09:52.482Z,6.50
2019-05-06T17:14:56.152Z,7.60
2019-05-06T17:20:02.938Z,12.30
2019-05-06T17:25:06.789Z,7.47
2019-05-06T17:30:28.281Z,7.13
2019-05-06T17:35:32.866Z,8.07
2019-05-06T17:40:37.148Z,7.73
2019-05-06T17:46:06.799Z,6.53
2019-05-06T17:51:30.168Z,5.97
2019-05-06T17:56:34.355Z,6.43
2019-05-06T18:01:45.281Z,6.53
2019-05-06T18:06:49.750Z,8.43
2019-05-06T18:11:59.024Z,7.73
2019-05-06T18:17:00.421Z,8.87
2019-05-06T18:22:04.672Z,5.23
2019-05-06T18:27:09.755Z,8.87
2019-05-06T18:32:14.011Z,5.17
2019-05-06T18:37:18.259Z,8.50
2019-05-06T18:42:23.671Z,6.60
2019-05-06T18:47:28.148Z,5.90
2019-05-06T18:52:33.683Z,4.87
2019-05-06T18:57:38.070Z,4.20
2019-05-06T19:02:42.532Z,2.73
2019-05-06T19:07:48.961Z,4.40
2019-05-06T19:12:53.605Z,4.17
2019-05-06T19:17:57.893Z,2.00
2019-05-06T19:23:02.949Z,6.60
2019-05-06T19:28:07.347Z,3.83
2019-05-06T19:33:12.360Z,5.10
2019-05-06T19:38:16.646Z,4.60
2019-05-06T19:43:21.975Z,3.50
2019-05-06T19:48:26.358Z,7.07
2019-05-06T19:53:32.267Z,4.23
2019-05-06T19:58:36.782Z,5.33
2019-05-06T20:03:41.191Z,2.50
2019-05-06T20:08:52.910Z,2.40
2019-05-06T20:13:57.385Z,4.87
2019-05-06T20:19:02.299Z,5.90
2019-05-06T20:24:06.961Z,4.33
2019-05-06T20:29:11.440Z,2.50
2019-05-06T20:34:15.666Z,4.77
2019-05-06T20:39:20.281Z,2.60
2019-05-06T20:44:25.745Z,3.03
2019-05-06T20:49:30.131Z,5.47
2019-05-06T20:54:34.340Z,3.80
2019-05-06T20:59:38.578Z,3.67
2019-05-06T21:04:43.627Z,4.77
2019-05-06T21:09:47.850Z,6.43
2019-05-06T21:14:52.083Z,3.07
2019-05-06T21:19:56.373Z,5.13
2019-05-06T21:25:02.355Z,3.27
2019-05-06T21:30:07.572Z,4.67
2019-05-06T21:35:12.769Z,5.20
2019-05-06T21:40:17.058Z,5.07
2019-05-06T21:45:22.142Z,3.23
2019-05-06T21:50:26.593Z,6.23
2019-05-06T21:55:32.329Z,4.90
2019-05-06T22:00:43.955Z,6.77
2019-05-06T22:05:48.217Z,4.47
2019-05-06T22:10:52.968Z,7.53
2019-05-06T22:15:57.268Z,7.40
2019-05-06T22:21:15.846Z,6.80
2019-05-06T22:26:20.099Z,6.03
2019-05-06T22:31:25.128Z,7.00
2019-05-06T22:36:29.349Z,5.83
2019-05-06T22:41:33.588Z,4.83
2019-05-06T22:46:38.253Z,9.83
2019-05-06T22:51:42.654Z,8.03
2019-05-06T22:56:47.138Z,5.23
2019-05-06T23:02:19.351Z,11.47
2019-05-06T23:07:23.949Z,8.10
2019-05-06T23:12:28.171Z,10.27
2019-05-06T23:17:34.378Z,6.83
2019-05-06T23:22:38.391Z,6.57
2019-05-06T23:27:44.155Z,8.33
2019-05-06T23:32:48.536Z,5.57
2019-05-06T23:38:28.868Z,20.43
2019-05-06T23:44:09.216Z,8.23
2019-05-06T23:49:49.075Z,7.80
2019-05-06T23:55:28.981Z,8.10
